sensor_id;sensor_type;location;lat;lon;timestamp;P1;durP1;ratioP1;P2;durP2;ratioP2
37131;SDS011;23035;50.032;21.978;2024-03-22T00:02:12;84.90;;;44.05;;
37131;SDS011;23035;50.032;21.978;2024-03-22T00:07:16;90.50;;;41.53;;
37131;SDS011;23035;50.032;21.978;2024-03-22T00:12:19;86.25;;;42.25;;
37131;SDS011;23035;50.032;21.978;2024-03-22T00:17:23;78.13;;;40.15;;
37131;SDS011;23035;50.032;21.978;2024-03-22T00:22:27;64.32;;;33.83;;
37131;SDS011;23035;50.032;21.978;2024-03-22T00:27:30;69.40;;;35.90;;
37131;SDS011;23035;50.032;21.978;2024-03-22T00:32:33;66.07;;;33.25;;
37131;SDS011;23035;50.032;21.978;2024-03-22T00:37:38;71.43;;;34.05;;
37131;SDS011;23035;50.032;21.978;2024-03-22T00:42:41;63.25;;;30.42;;
37131;SDS011;23035;50.032;21.978;2024-03-22T00:47:44;56.58;;;28.88;;
37131;SDS011;23035;50.032;21.978;2024-03-22T00:52:49;65.75;;;31.30;;
37131;SDS011;23035;50.032;21.978;2024-03-22T00:57:53;52.88;;;26.65;;
37131;SDS011;23035;50.032;21.978;2024-03-22T01:02:56;49.95;;;25.58;;
37131;SDS011;23035;50.032;21.978;2024-03-22T01:08:00;52.78;;;23.70;;
37131;SDS011;23035;50.032;21.978;2024-03-22T01:13:03;58.55;;;22.58;;
37131;SDS011;23035;50.032;21.978;2024-03-22T01:18:06;48.15;;;21.80;;
37131;SDS011;23035;50.032;21.978;2024-03-22T01:23:11;43.33;;;21.25;;
37131;SDS011;23035;50.032;21.978;2024-03-22T01:28:14;40.50;;;19.73;;
37131;SDS011;23035;50.032;21.978;2024-03-22T01:33:17;41.25;;;19.15;;
37131;SDS011;23035;50.032;21.978;2024-03-22T01:38:21;43.63;;;19.92;;
37131;SDS011;23035;50.032;21.978;2024-03-22T01:43:24;40.90;;;19.10;;
37131;SDS011;23035;50.032;21.978;2024-03-22T01:48:27;40.50;;;18.40;;
37131;SDS011;23035;50.032;21.978;2024-03-22T01:53:31;39.03;;;18.92;;
37131;SDS011;23035;50.032;21.978;2024-03-22T01:58:35;43.30;;;21.35;;
37131;SDS011;23035;50.032;21.978;2024-03-22T02:03:39;38.80;;;18.27;;
37131;SDS011;23035;50.032;21.978;2024-03-22T02:08:43;37.40;;;19.70;;
37131;SDS011;23035;50.032;21.978;2024-03-22T02:13:46;37.28;;;20.42;;
37131;SDS011;23035;50.032;21.978;2024-03-22T02:18:49;46.72;;;21.45;;
37131;SDS011;23035;50.032;21.978;2024-03-22T02:23:54;40.63;;;21.13;;
37131;SDS011;23035;50.032;21.978;2024-03-22T02:28:57;40.17;;;22.05;;
37131;SDS011;23035;50.032;21.978;2024-03-22T02:34:00;42.10;;;21.15;;
37131;SDS011;23035;50.032;21.978;2024-03-22T02:39:04;39.75;;;19.88;;
37131;SDS011;23035;50.032;21.978;2024-03-22T02:44:07;32.90;;;17.27;;
37131;SDS011;23035;50.032;21.978;2024-03-22T02:49:10;32.63;;;17.40;;
37131;SDS011;23035;50.032;21.978;2024-03-22T02:54:14;31.80;;;16.63;;
37131;SDS011;23035;50.032;21.978;2024-03-22T02:59:17;31.55;;;17.05;;
37131;SDS011;23035;50.032;21.978;2024-03-22T03:04:20;34.28;;;18.15;;
37131;SDS011;23035;50.032;21.978;2024-03-22T03:09:25;34.25;;;17.40;;
37131;SDS011;23035;50.032;21.978;2024-03-22T03:14:28;34.20;;;17.95;;
37131;SDS011;23035;50.032;21.978;2024-03-22T03:19:31;32.17;;;17.17;;
37131;SDS011;23035;50.032;21.978;2024-03-22T03:24:35;27.42;;;16.52;;
37131;SDS011;23035;50.032;21.978;2024-03-22T03:29:38;34.80;;;17.48;;
37131;SDS011;23035;50.032;21.978;2024-03-22T03:34:41;32.28;;;17.63;;
37131;SDS011;23035;50.032;21.978;2024-03-22T03:39:46;30.30;;;16.92;;
37131;SDS011;23035;50.032;21.978;2024-03-22T03:44:49;28.63;;;16.95;;
37131;SDS011;23035;50.032;21.978;2024-03-22T03:49:52;31.55;;;18.55;;
37131;SDS011;23035;50.032;21.978;2024-03-22T03:54:56;33.33;;;18.60;;
37131;SDS011;23035;50.032;21.978;2024-03-22T03:59:59;34.25;;;19.10;;
37131;SDS011;23035;50.032;21.978;2024-03-22T04:05:02;32.17;;;18.35;;
37131;SDS011;23035;50.032;21.978;2024-03-22T04:10:08;35.40;;;18.75;;
37131;SDS011;23035;50.032;21.978;2024-03-22T04:15:11;38.60;;;19.10;;
37131;SDS011;23035;50.032;21.978;2024-03-22T04:20:14;35.38;;;18.75;;
37131;SDS011;23035;50.032;21.978;2024-03-22T04:25:18;38.45;;;18.95;;
37131;SDS011;23035;50.032;21.978;2024-03-22T04:30:21;41.05;;;20.30;;
37131;SDS011;23035;50.032;21.978;2024-03-22T04:35:24;45.58;;;21.60;;
37131;SDS011;23035;50.032;21.978;2024-03-22T04:40:29;40.90;;;21.65;;
37131;SDS011;23035;50.032;21.978;2024-03-22T04:45:31;41.00;;;21.30;;
37131;SDS011;23035;50.032;21.978;2024-03-22T04:50:34;53.85;;;27.55;;
37131;SDS011;23035;50.032;21.978;2024-03-22T04:55:39;40.35;;;23.13;;
37131;SDS011;23035;50.032;21.978;2024-03-22T05:00:46;41.33;;;21.42;;
37131;SDS011;23035;50.032;21.978;2024-03-22T05:05:50;42.47;;;21.60;;
37131;SDS011;23035;50.032;21.978;2024-03-22T05:10:54;39.88;;;22.92;;
37131;SDS011;23035;50.032;21.978;2024-03-22T05:15:57;44.30;;;23.67;;
37131;SDS011;23035;50.032;21.978;2024-03-22T05:21:00;38.30;;;21.67;;
37131;SDS011;23035;50.032;21.978;2024-03-22T05:26:04;34.97;;;21.63;;
37131;SDS011;23035;50.032;21.978;2024-03-22T05:31:07;41.40;;;22.50;;
37131;SDS011;23035;50.032;21.978;2024-03-22T05:36:11;41.47;;;22.70;;
37131;SDS011;23035;50.032;21.978;2024-03-22T05:41:18;56.17;;;32.20;;
37131;SDS011;23035;50.032;21.978;2024-03-22T05:46:21;49.03;;;28.05;;
37131;SDS011;23035;50.032;21.978;2024-03-22T05:51:23;55.58;;;32.65;;
37131;SDS011;23035;50.032;21.978;2024-03-22T05:56:28;54.72;;;31.60;;
37131;SDS011;23035;50.032;21.978;2024-03-22T06:01:31;60.88;;;31.73;;
37131;SDS011;23035;50.032;21.978;2024-03-22T06:06:34;57.58;;;31.95;;
37131;SDS011;23035;50.032;21.978;2024-03-22T06:11:38;52.33;;;30.52;;
37131;SDS011;23035;50.032;21.978;2024-03-22T06:16:46;52.60;;;29.83;;
37131;SDS011;23035;50.032;21.978;2024-03-22T06:21:49;54.00;;;28.80;;
37131;SDS011;23035;50.032;21.978;2024-03-22T06:26:54;56.92;;;29.05;;
37131;SDS011;23035;50.032;21.978;2024-03-22T06:31:57;52.35;;;34.33;;
37131;SDS011;23035;50.032;21.978;2024-03-22T06:37:00;64.07;;;39.45;;
37131;SDS011;23035;50.032;21.978;2024-03-22T06:42:05;72.50;;;46.75;;
37131;SDS011;23035;50.032;21.978;2024-03-22T06:47:08;79.45;;;51.15;;
37131;SDS011;23035;50.032;21.978;2024-03-22T06:52:10;84.25;;;50.45;;
37131;SDS011;23035;50.032;21.978;2024-03-22T06:57:15;76.90;;;44.72;;
37131;SDS011;23035;50.032;21.978;2024-03-22T07:02:18;85.35;;;46.65;;
37131;SDS011;23035;50.032;21.978;2024-03-22T07:07:21;80.57;;;45.70;;
37131;SDS011;23035;50.032;21.978;2024-03-22T07:12:26;83.45;;;44.30;;
37131;SDS011;23035;50.032;21.978;2024-03-22T07:17:29;89.80;;;46.72;;
37131;SDS011;23035;50.032;21.978;2024-03-22T07:22:32;77.90;;;42.65;;
37131;SDS011;23035;50.032;21.978;2024-03-22T07:27:36;74.68;;;39.17;;
37131;SDS011;23035;50.032;21.978;2024-03-22T07:32:39;67.57;;;37.50;;
37131;SDS011;23035;50.032;21.978;2024-03-22T07:37:42;64.72;;;38.60;;
37131;SDS011;23035;50.032;21.978;2024-03-22T07:42:47;72.47;;;37.83;;
37131;SDS011;23035;50.032;21.978;2024-03-22T07:47:50;72.78;;;40.13;;
37131;SDS011;23035;50.032;21.978;2024-03-22T07:52:53;73.50;;;38.58;;
37131;SDS011;23035;50.032;21.978;2024-03-22T07:57:58;70.45;;;35.85;;
37131;SDS011;23035;50.032;21.978;2024-03-22T08:03:01;54.38;;;31.95;;
37131;SDS011;23035;50.032;21.978;2024-03-22T08:08:04;52.88;;;31.98;;
37131;SDS011;23035;50.032;21.978;2024-03-22T08:13:09;62.72;;;34.97;;
37131;SDS011;23035;50.032;21.978;2024-03-22T08:18:13;57.43;;;33.40;;
37131;SDS011;23035;50.032;21.978;2024-03-22T08:23:16;67.93;;;36.03;;
37131;SDS011;23035;50.032;21.978;2024-03-22T08:28:23;58.40;;;34.00;;
37131;SDS011;23035;50.032;21.978;2024-03-22T08:33:26;52.22;;;29.10;;
37131;SDS011;23035;50.032;21.978;2024-03-22T08:38:29;63.50;;;34.38;;
37131;SDS011;23035;50.032;21.978;2024-03-22T08:43:34;52.63;;;30.75;;
37131;SDS011;23035;50.032;21.978;2024-03-22T08:48:37;64.88;;;35.22;;
37131;SDS011;23035;50.032;21.978;2024-03-22T08:53:40;57.75;;;32.05;;
37131;SDS011;23035;50.032;21.978;2024-03-22T08:58:45;57.20;;;32.72;;
37131;SDS011;23035;50.032;21.978;2024-03-22T09:03:48;66.05;;;34.83;;
37131;SDS011;23035;50.032;21.978;2024-03-22T09:08:52;62.15;;;33.75;;
37131;SDS011;23035;50.032;21.978;2024-03-22T09:14:00;59.42;;;33.53;;
37131;SDS011;23035;50.032;21.978;2024-03-22T09:19:06;64.27;;;35.70;;
37131;SDS011;23035;50.032;21.978;2024-03-22T09:24:09;58.97;;;34.67;;
37131;SDS011;23035;50.032;21.978;2024-03-22T09:29:14;51.15;;;32.03;;
37131;SDS011;23035;50.032;21.978;2024-03-22T09:34:17;51.75;;;31.33;;
37131;SDS011;23035;50.032;21.978;2024-03-22T09:39:21;54.10;;;32.10;;
37131;SDS011;23035;50.032;21.978;2024-03-22T09:44:25;57.50;;;32.22;;
37131;SDS011;23035;50.032;21.978;2024-03-22T09:49:30;53.45;;;31.95;;
37131;SDS011;23035;50.032;21.978;2024-03-22T09:54:34;57.17;;;33.28;;
37131;SDS011;23035;50.032;21.978;2024-03-22T09:59:39;54.60;;;31.73;;
37131;SDS011;23035;50.032;21.978;2024-03-22T10:04:42;53.40;;;31.70;;
37131;SDS011;23035;50.032;21.978;2024-03-22T10:09:46;53.35;;;32.20;;
37131;SDS011;23035;50.032;21.978;2024-03-22T10:14:52;61.33;;;30.73;;
37131;SDS011;23035;50.032;21.978;2024-03-22T10:19:55;49.15;;;31.17;;
37131;SDS011;23035;50.032;21.978;2024-03-22T10:24:58;48.10;;;28.27;;
37131;SDS011;23035;50.032;21.978;2024-03-22T10:30:04;44.58;;;28.52;;
37131;SDS011;23035;50.032;21.978;2024-03-22T10:35:11;45.78;;;25.25;;
37131;SDS011;23035;50.032;21.978;2024-03-22T10:40:15;39.55;;;25.02;;
37131;SDS011;23035;50.032;21.978;2024-03-22T10:45:21;48.00;;;26.48;;
37131;SDS011;23035;50.032;21.978;2024-03-22T10:50:27;50.85;;;29.40;;
37131;SDS011;23035;50.032;21.978;2024-03-22T10:55:32;43.75;;;25.48;;
37131;SDS011;23035;50.032;21.978;2024-03-22T11:00:41;52.92;;;29.00;;
37131;SDS011;23035;50.032;21.978;2024-03-22T11:05:46;54.33;;;31.77;;
37131;SDS011;23035;50.032;21.978;2024-03-22T11:10:49;54.22;;;31.95;;
37131;SDS011;23035;50.032;21.978;2024-03-22T11:15:56;52.97;;;31.15;;
37131;SDS011;23035;50.032;21.978;2024-03-22T11:21:04;49.08;;;31.17;;
37131;SDS011;23035;50.032;21.978;2024-03-22T11:26:09;51.72;;;30.92;;
37131;SDS011;23035;50.032;21.978;2024-03-22T11:31:13;52.83;;;32.38;;
37131;SDS011;23035;50.032;21.978;2024-03-22T11:36:17;47.50;;;29.40;;
37131;SDS011;23035;50.032;21.978;2024-03-22T11:41:21;48.92;;;31.73;;
37131;SDS011;23035;50.032;21.978;2024-03-22T11:46:32;50.72;;;27.17;;
37131;SDS011;23035;50.032;21.978;2024-03-22T11:56:40;41.92;;;25.42;;
37131;SDS011;23035;50.032;21.978;2024-03-22T12:01:48;43.60;;;28.02;;
37131;SDS011;23035;50.032;21.978;2024-03-22T12:06:52;42.63;;;26.33;;
37131;SDS011;23035;50.032;21.978;2024-03-22T12:11:58;45.10;;;27.40;;
37131;SDS011;23035;50.032;21.978;2024-03-22T12:17:04;40.40;;;26.17;;
37131;SDS011;23035;50.032;21.978;2024-03-22T12:22:07;49.13;;;25.40;;
37131;SDS011;23035;50.032;21.978;2024-03-22T12:27:10;43.05;;;26.55;;
37131;SDS011;23035;50.032;21.978;2024-03-22T12:32:15;43.72;;;25.10;;
37131;SDS011;23035;50.032;21.978;2024-03-22T12:37:18;40.37;;;26.70;;
37131;SDS011;23035;50.032;21.978;2024-03-22T12:42:21;40.05;;;26.40;;
37131;SDS011;23035;50.032;21.978;2024-03-22T12:47:27;47.13;;;26.38;;
37131;SDS011;23035;50.032;21.978;2024-03-22T12:52:30;40.90;;;26.13;;
37131;SDS011;23035;50.032;21.978;2024-03-22T12:57:33;45.22;;;25.65;;
37131;SDS011;23035;50.032;21.978;2024-03-22T13:02:37;39.25;;;26.48;;
37131;SDS011;23035;50.032;21.978;2024-03-22T13:12:45;45.67;;;26.63;;
37131;SDS011;23035;50.032;21.978;2024-03-22T13:17:50;51.58;;;28.17;;
37131;SDS011;23035;50.032;21.978;2024-03-22T13:22:54;53.58;;;28.60;;
37131;SDS011;23035;50.032;21.978;2024-03-22T13:27:58;46.25;;;27.90;;
37131;SDS011;23035;50.032;21.978;2024-03-22T13:33:05;45.80;;;26.15;;
37131;SDS011;23035;50.032;21.978;2024-03-22T13:38:09;44.10;;;25.00;;
37131;SDS011;23035;50.032;21.978;2024-03-22T13:43:14;45.60;;;28.33;;
37131;SDS011;23035;50.032;21.978;2024-03-22T13:48:18;44.05;;;27.52;;
37131;SDS011;23035;50.032;21.978;2024-03-22T13:53:26;46.75;;;27.95;;
37131;SDS011;23035;50.032;21.978;2024-03-22T13:58:29;45.63;;;27.85;;
37131;SDS011;23035;50.032;21.978;2024-03-22T14:03:34;50.33;;;29.27;;
37131;SDS011;23035;50.032;21.978;2024-03-22T14:08:37;51.13;;;26.40;;
37131;SDS011;23035;50.032;21.978;2024-03-22T14:13:40;41.35;;;25.95;;
37131;SDS011;23035;50.032;21.978;2024-03-22T14:18:44;39.42;;;24.15;;
37131;SDS011;23035;50.032;21.978;2024-03-22T14:23:50;47.00;;;27.80;;
37131;SDS011;23035;50.032;21.978;2024-03-22T14:28:54;50.30;;;28.75;;
37131;SDS011;23035;50.032;21.978;2024-03-22T14:33:58;49.13;;;27.67;;
37131;SDS011;23035;50.032;21.978;2024-03-22T14:39:01;49.35;;;27.05;;
37131;SDS011;23035;50.032;21.978;2024-03-22T14:44:06;48.58;;;27.83;;
37131;SDS011;23035;50.032;21.978;2024-03-22T14:49:11;43.15;;;24.52;;
37131;SDS011;23035;50.032;21.978;2024-03-22T14:54:15;42.90;;;26.57;;
37131;SDS011;23035;50.032;21.978;2024-03-22T14:59:18;44.67;;;26.30;;
37131;SDS011;23035;50.032;21.978;2024-03-22T15:04:22;44.00;;;26.88;;
37131;SDS011;23035;50.032;21.978;2024-03-22T15:09:26;46.50;;;27.07;;
37131;SDS011;23035;50.032;21.978;2024-03-22T15:14:29;43.17;;;25.58;;
37131;SDS011;23035;50.032;21.978;2024-03-22T15:19:33;41.00;;;25.70;;
37131;SDS011;23035;50.032;21.978;2024-03-22T15:24:37;42.33;;;24.70;;
37131;SDS011;23035;50.032;21.978;2024-03-22T15:29:40;45.17;;;25.80;;
37131;SDS011;23035;50.032;21.978;2024-03-22T15:34:45;41.10;;;24.13;;
37131;SDS011;23035;50.032;21.978;2024-03-22T15:39:48;37.80;;;22.27;;
37131;SDS011;23035;50.032;21.978;2024-03-22T15:44:50;47.60;;;24.25;;
37131;SDS011;23035;50.032;21.978;2024-03-22T15:49:55;43.28;;;22.15;;
37131;SDS011;23035;50.032;21.978;2024-03-22T15:54:58;41.28;;;22.13;;
37131;SDS011;23035;50.032;21.978;2024-03-22T16:00:01;34.97;;;20.65;;
37131;SDS011;23035;50.032;21.978;2024-03-22T16:05:14;34.63;;;20.17;;
37131;SDS011;23035;50.032;21.978;2024-03-22T16:10:17;42.55;;;22.10;;
37131;SDS011;23035;50.032;21.978;2024-03-22T16:15:21;34.55;;;21.25;;
37131;SDS011;23035;50.032;21.978;2024-03-22T16:20:25;42.13;;;21.70;;
37131;SDS011;23035;50.032;21.978;2024-03-22T16:25:28;42.88;;;22.63;;
37131;SDS011;23035;50.032;21.978;2024-03-22T16:30:31;36.30;;;21.00;;
37131;SDS011;23035;50.032;21.978;2024-03-22T16:35:36;39.92;;;18.77;;
37131;SDS011;23035;50.032;21.978;2024-03-22T16:40:39;35.03;;;18.83;;
37131;SDS011;23035;50.032;21.978;2024-03-22T16:45:42;35.95;;;19.42;;
37131;SDS011;23035;50.032;21.978;2024-03-22T16:50:47;37.92;;;20.10;;
37131;SDS011;23035;50.032;21.978;2024-03-22T16:55:50;37.08;;;19.60;;
37131;SDS011;23035;50.032;21.978;2024-03-22T17:00:55;40.23;;;22.03;;
37131;SDS011;23035;50.032;21.978;2024-03-22T17:05:59;39.30;;;20.75;;
37131;SDS011;23035;50.032;21.978;2024-03-22T17:11:03;35.10;;;20.17;;
37131;SDS011;23035;50.032;21.978;2024-03-22T17:16:06;39.45;;;20.05;;
37131;SDS011;23035;50.032;21.978;2024-03-22T17:21:11;40.38;;;21.88;;
37131;SDS011;23035;50.032;21.978;2024-03-22T17:26:14;44.72;;;23.23;;
37131;SDS011;23035;50.032;21.978;2024-03-22T17:31:21;44.38;;;25.33;;
37131;SDS011;23035;50.032;21.978;2024-03-22T17:36:25;46.42;;;23.80;;
37131;SDS011;23035;50.032;21.978;2024-03-22T17:41:28;49.22;;;24.73;;
37131;SDS011;23035;50.032;21.978;2024-03-22T17:46:31;48.95;;;26.45;;
37131;SDS011;23035;50.032;21.978;2024-03-22T17:51:36;49.30;;;23.88;;
37131;SDS011;23035;50.032;21.978;2024-03-22T17:56:42;54.03;;;24.95;;
37131;SDS011;23035;50.032;21.978;2024-03-22T18:01:45;45.60;;;22.92;;
37131;SDS011;23035;50.032;21.978;2024-03-22T18:06:50;46.53;;;23.98;;
37131;SDS011;23035;50.032;21.978;2024-03-22T18:11:53;41.92;;;22.23;;
37131;SDS011;23035;50.032;21.978;2024-03-22T18:16:58;39.90;;;21.98;;
37131;SDS011;23035;50.032;21.978;2024-03-22T18:22:04;42.17;;;22.83;;
37131;SDS011;23035;50.032;21.978;2024-03-22T18:27:07;45.75;;;24.55;;
37131;SDS011;23035;50.032;21.978;2024-03-22T18:32:10;46.00;;;22.45;;
37131;SDS011;23035;50.032;21.978;2024-03-22T18:37:15;42.25;;;23.27;;
37131;SDS011;23035;50.032;21.978;2024-03-22T18:42:21;38.70;;;21.40;;
37131;SDS011;23035;50.032;21.978;2024-03-22T18:47:24;40.13;;;23.73;;
37131;SDS011;23035;50.032;21.978;2024-03-22T18:52:28;47.65;;;24.70;;
37131;SDS011;23035;50.032;21.978;2024-03-22T18:57:31;39.13;;;22.10;;
37131;SDS011;23035;50.032;21.978;2024-03-22T19:02:34;36.25;;;19.77;;
37131;SDS011;23035;50.032;21.978;2024-03-22T19:07:41;32.40;;;18.27;;
37131;SDS011;23035;50.032;21.978;2024-03-22T19:12:47;34.50;;;18.02;;
37131;SDS011;23035;50.032;21.978;2024-03-22T19:17:50;28.58;;;16.55;;
37131;SDS011;23035;50.032;21.978;2024-03-22T19:22:55;28.25;;;16.52;;
37131;SDS011;23035;50.032;21.978;2024-03-22T19:27:59;31.87;;;17.23;;
37131;SDS011;23035;50.032;21.978;2024-03-22T19:33:04;28.30;;;16.83;;
37131;SDS011;23035;50.032;21.978;2024-03-22T19:38:08;28.38;;;16.02;;
37131;SDS011;23035;50.032;21.978;2024-03-22T19:43:11;28.13;;;15.18;;
37131;SDS011;23035;50.032;21.978;2024-03-22T19:48:14;29.60;;;16.45;;
37131;SDS011;23035;50.032;21.978;2024-03-22T19:53:19;31.88;;;16.00;;
37131;SDS011;23035;50.032;21.978;2024-03-22T19:58:22;28.77;;;14.55;;
37131;SDS011;23035;50.032;21.978;2024-03-22T20:03:32;25.48;;;14.52;;
37131;SDS011;23035;50.032;21.978;2024-03-22T20:08:37;25.15;;;14.45;;
37131;SDS011;23035;50.032;21.978;2024-03-22T20:13:40;23.63;;;13.35;;
37131;SDS011;23035;50.032;21.978;2024-03-22T20:18:43;22.85;;;13.35;;
37131;SDS011;23035;50.032;21.978;2024-03-22T20:23:48;23.95;;;13.55;;
37131;SDS011;23035;50.032;21.978;2024-03-22T20:28:51;25.48;;;13.68;;
37131;SDS011;23035;50.032;21.978;2024-03-22T20:33:54;26.73;;;14.32;;
